createdAt,value
2018-12-19T00:00:13.996Z,947.47
2018-12-19T00:01:13.895Z,947.18
2018-12-19T00:02:13.789Z,947.29
2018-12-19T00:03:13.687Z,947.25
2018-12-19T00:04:13.601Z,947.37
2018-12-19T00:05:13.583Z,947.31
2018-12-19T00:06:13.375Z,947.30
2018-12-19T00:07:13.277Z,947.17
2018-12-19T00:08:13.184Z,947.53
2018-12-19T00:09:13.071Z,947.33
2018-12-19T00:10:12.961Z,947.33
2018-12-19T00:11:12.857Z,947.11
2018-12-19T00:12:12.853Z,947.23
2018-12-19T00:13:12.657Z,947.20
2018-12-19T00:14:12.563Z,947.28
2018-12-19T00:15:12.449Z,947.41
2018-12-19T00:16:12.343Z,947.20
2018-12-19T00:17:12.239Z,947.08
2018-12-19T00:18:12.137Z,947.11
2018-12-19T00:19:12.143Z,947.09
2018-12-19T00:20:11.930Z,946.93
2018-12-19T00:21:11.829Z,947.29
2018-12-19T00:22:11.721Z,946.96
2018-12-19T00:23:11.617Z,946.94
2018-12-19T00:24:11.532Z,947.00
2018-12-19T00:25:11.412Z,946.98
2018-12-19T00:26:11.406Z,946.89
2018-12-19T00:27:11.202Z,947.07
2018-12-19T00:28:11.100Z,946.91
2018-12-19T00:29:11.014Z,946.74
2018-12-19T00:30:10.894Z,946.80
2018-12-19T00:31:10.790Z,946.76
2018-12-19T00:32:10.683Z,946.62
2018-12-19T00:33:10.685Z,946.82
2018-12-19T00:34:10.494Z,946.81
2018-12-19T00:35:10.377Z,946.85
2018-12-19T00:36:10.275Z,946.70
2018-12-19T00:37:10.169Z,946.69
2018-12-19T00:38:10.062Z,946.81
2018-12-19T00:39:10.081Z,946.75
2018-12-19T00:40:09.861Z,946.69
2018-12-19T00:41:09.751Z,946.69
2018-12-19T00:42:09.648Z,946.74
2018-12-19T00:43:09.544Z,946.59
2018-12-19T00:44:09.459Z,946.55
2018-12-19T00:45:09.341Z,946.60
2018-12-19T00:46:09.238Z,946.54
2018-12-19T00:47:09.237Z,946.60
2018-12-19T00:48:09.026Z,946.53
2018-12-19T00:49:08.948Z,946.72
2018-12-19T00:50:08.828Z,946.61
2018-12-19T00:51:08.719Z,946.65
2018-12-19T00:52:08.616Z,946.58
2018-12-19T00:53:08.513Z,946.66
2018-12-19T00:54:08.427Z,946.64
2018-12-19T00:55:08.304Z,946.67
2018-12-19T00:56:08.205Z,946.70
2018-12-19T00:57:08.098Z,946.76
2018-12-19T00:58:07.996Z,946.67
2018-12-19T00:59:07.906Z,946.72
2018-12-19T01:00:07.784Z,946.85
2018-12-19T01:01:07.684Z,946.79
2018-12-19T01:02:07.576Z,946.72
2018-12-19T01:03:07.476Z,946.78
2018-12-19T01:04:07.386Z,946.80
2018-12-19T01:05:07.269Z,946.93
2018-12-19T01:06:07.166Z,946.72
2018-12-19T01:07:07.064Z,946.74
2018-12-19T01:08:06.961Z,946.91
2018-12-19T01:09:06.870Z,946.85
2018-12-19T01:10:06.751Z,946.65
2018-12-19T01:11:06.644Z,946.66
2018-12-19T01:12:06.543Z,946.61
2018-12-19T01:13:06.452Z,946.68
2018-12-19T01:14:06.350Z,946.66
2018-12-19T01:15:06.234Z,946.70
2018-12-19T01:16:06.126Z,946.67
2018-12-19T01:17:06.022Z,946.80
2018-12-19T01:18:05.918Z,946.93
2018-12-19T01:19:05.835Z,946.90
2018-12-19T01:20:05.715Z,946.83
2018-12-19T01:21:05.611Z,946.95
2018-12-19T01:22:05.513Z,946.83
2018-12-19T01:23:05.403Z,946.76
2018-12-19T01:24:05.322Z,946.77
2018-12-19T01:25:05.194Z,946.76
2018-12-19T01:26:05.093Z,946.84
2018-12-19T01:27:04.988Z,946.95
2018-12-19T01:28:04.886Z,946.75
2018-12-19T01:29:04.797Z,946.74
2018-12-19T01:30:04.674Z,946.76
2018-12-19T01:31:04.566Z,946.64
2018-12-19T01:32:04.471Z,946.93
2018-12-19T01:33:04.364Z,946.76
2018-12-19T01:34:04.281Z,946.82
2018-12-19T01:35:04.158Z,946.97
2018-12-19T01:36:04.051Z,946.77
2018-12-19T01:37:03.949Z,946.66
2018-12-19T01:38:03.846Z,947.00
2018-12-19T01:39:03.755Z,946.69
2018-12-19T01:40:03.640Z,946.63
2018-12-19T01:41:03.531Z,946.68
2018-12-19T01:42:03.430Z,946.63
2018-12-19T01:43:03.325Z,946.65
2018-12-19T01:44:03.239Z,946.95
2018-12-19T01:45:03.115Z,946.63
2018-12-19T01:46:03.013Z,946.72
2018-12-19T01:47:02.906Z,946.87
2018-12-19T01:48:02.804Z,946.77
2018-12-19T01:49:02.732Z,946.65
2018-12-19T01:50:02.595Z,946.79
2018-12-19T01:51:02.489Z,946.78
2018-12-19T01:52:02.394Z,946.87
2018-12-19T01:53:02.285Z,946.75
2018-12-19T01:54:02.182Z,946.73
2018-12-19T01:55:02.095Z,946.80
2018-12-19T01:56:01.973Z,946.72
2018-12-19T01:57:01.870Z,946.81
2018-12-19T01:58:01.764Z,946.71
2018-12-19T01:59:01.665Z,946.83
2018-12-19T02:00:01.574Z,946.72
2018-12-19T02:01:01.456Z,946.72
2018-12-19T02:02:01.352Z,946.76
2018-12-19T02:03:01.242Z,946.77
2018-12-19T02:04:01.143Z,946.77
2018-12-19T02:05:01.049Z,946.79
2018-12-19T02:06:00.933Z,946.86
2018-12-19T02:07:00.826Z,946.81
2018-12-19T02:08:00.720Z,946.89
2018-12-19T02:09:00.623Z,946.95
2018-12-19T02:10:00.537Z,947.05
2018-12-19T02:11:00.410Z,946.94
2018-12-19T02:12:00.305Z,946.92
2018-12-19T02:13:00.204Z,946.90
2018-12-19T02:14:00.098Z,946.85
2018-12-19T02:15:00.011Z,946.83
2018-12-19T02:15:59.890Z,946.90
2018-12-19T02:16:59.884Z,946.84
2018-12-19T02:17:59.679Z,947.08
2018-12-19T02:18:59.577Z,947.00
2018-12-19T02:19:59.489Z,947.03
2018-12-19T02:20:59.365Z,946.93
2018-12-19T02:21:59.263Z,946.93
2018-12-19T02:22:59.162Z,946.97
2018-12-19T02:23:59.157Z,946.90
2018-12-19T02:24:58.968Z,946.85
2018-12-19T02:25:58.847Z,946.79
2018-12-19T02:26:58.740Z,946.79
2018-12-19T02:27:58.643Z,946.71
2018-12-19T02:28:58.535Z,946.85
2018-12-19T02:29:58.444Z,946.78
2018-12-19T02:30:58.428Z,946.61
2018-12-19T02:31:58.223Z,946.73
2018-12-19T02:32:58.114Z,946.66
2018-12-19T02:33:58.014Z,946.76
2018-12-19T02:34:57.925Z,946.57
2018-12-19T02:35:57.805Z,946.55
2018-12-19T02:36:57.704Z,946.88
2018-12-19T02:37:57.695Z,946.60
2018-12-19T02:38:57.493Z,946.54
2018-12-19T02:39:57.403Z,946.52
2018-12-19T02:40:57.281Z,946.77
2018-12-19T02:41:57.178Z,947.00
2018-12-19T02:42:57.074Z,946.63
2018-12-19T02:43:56.969Z,946.51
2018-12-19T02:44:56.981Z,946.59
2018-12-19T02:45:56.763Z,946.60
2018-12-19T02:46:56.656Z,946.60
2018-12-19T02:47:56.554Z,946.53
2018-12-19T02:48:56.446Z,946.64
2018-12-19T02:49:56.359Z,946.62
2018-12-19T02:50:56.235Z,946.51
2018-12-19T02:51:56.234Z,946.46
2018-12-19T02:52:56.061Z,946.52
2018-12-19T02:53:55.925Z,946.51
2018-12-19T02:54:55.838Z,946.62
2018-12-19T02:55:55.720Z,946.44
2018-12-19T02:56:55.613Z,946.41
2018-12-19T02:57:55.507Z,946.45
2018-12-19T02:58:55.507Z,946.67
2018-12-19T02:59:55.318Z,946.61
2018-12-19T03:00:55.190Z,946.53
2018-12-19T03:01:55.088Z,946.32
2018-12-19T03:02:54.992Z,946.40
2018-12-19T03:03:54.882Z,946.40
2018-12-19T03:04:54.797Z,946.37
2018-12-19T03:05:54.671Z,946.36
2018-12-19T03:06:54.883Z,946.23
2018-12-19T03:07:54.465Z,946.40
2018-12-19T03:08:54.358Z,946.01
2018-12-19T03:09:54.269Z,946.20
2018-12-19T03:10:54.149Z,946.06
2018-12-19T03:11:54.044Z,946.05
2018-12-19T03:12:53.943Z,946.27
2018-12-19T03:13:53.949Z,946.01
2018-12-19T03:14:53.749Z,946.11
2018-12-19T03:15:53.629Z,945.98
2018-12-19T03:16:53.525Z,946.10
2018-12-19T03:17:53.424Z,946.10
2018-12-19T03:18:53.312Z,945.96
2018-12-19T03:19:53.228Z,946.20
2018-12-19T03:20:53.209Z,945.95
2018-12-19T03:21:53.005Z,946.26
2018-12-19T03:22:52.897Z,945.99
2018-12-19T03:23:52.790Z,946.05
2018-12-19T03:24:52.705Z,946.14
2018-12-19T03:25:52.581Z,945.98
2018-12-19T03:26:52.479Z,945.99
2018-12-19T03:27:52.475Z,945.81
2018-12-19T03:28:52.271Z,945.95
2018-12-19T03:29:52.180Z,945.84
2018-12-19T03:30:53.399Z,946.01
2018-12-19T03:31:51.956Z,945.99
2018-12-19T03:32:51.853Z,945.93
2018-12-19T03:33:51.750Z,945.87
2018-12-19T03:34:51.760Z,945.88
2018-12-19T03:35:51.536Z,945.91
2018-12-19T03:36:51.436Z,945.83
2018-12-19T03:37:51.328Z,945.98
2018-12-19T03:38:51.219Z,945.79
2018-12-19T03:39:51.128Z,945.92
2018-12-19T03:40:51.123Z,945.82
2018-12-19T03:41:50.910Z,945.94
2018-12-19T03:42:50.808Z,945.90
2018-12-19T03:43:50.704Z,945.95
2018-12-19T03:44:50.600Z,945.72
2018-12-19T03:45:50.512Z,945.70
2018-12-19T03:46:50.390Z,945.93
2018-12-19T03:47:50.283Z,945.80
2018-12-19T03:48:50.185Z,945.63
2018-12-19T03:49:50.138Z,945.82
2018-12-19T03:50:49.987Z,945.71
2018-12-19T03:51:49.866Z,945.93
2018-12-19T03:52:49.761Z,945.80
2018-12-19T03:53:49.660Z,945.61
2018-12-19T03:54:49.556Z,945.56
2018-12-19T03:55:49.470Z,945.86
2018-12-19T03:56:49.348Z,945.62
2018-12-19T03:57:49.247Z,945.69
2018-12-19T03:58:49.138Z,945.63
2018-12-19T03:59:49.042Z,945.67
2018-12-19T04:00:48.946Z,945.63
2018-12-19T04:01:48.825Z,945.89
2018-12-19T04:02:48.719Z,945.87
2018-12-19T04:03:48.612Z,945.63
2018-12-19T04:04:48.508Z,945.49
2018-12-19T04:05:48.419Z,945.62
2018-12-19T04:06:48.316Z,945.64
2018-12-19T04:07:48.194Z,945.84
2018-12-19T04:08:48.092Z,945.98
2018-12-19T04:09:47.986Z,945.80
2018-12-19T04:10:47.902Z,945.62
2018-12-19T04:11:47.777Z,945.86
2018-12-19T04:12:47.678Z,945.86
2018-12-19T04:13:47.573Z,945.83
2018-12-19T04:14:47.467Z,945.75
2018-12-19T04:15:48.044Z,945.78
2018-12-19T04:16:47.259Z,945.94
2018-12-19T04:17:47.155Z,945.86
2018-12-19T04:18:47.051Z,945.74
2018-12-19T04:19:46.946Z,945.75
2018-12-19T04:20:46.854Z,945.85
2018-12-19T04:21:46.734Z,945.79
2018-12-19T04:22:46.632Z,945.74
2018-12-19T04:23:46.524Z,945.66
2018-12-19T04:24:46.419Z,945.77
2018-12-19T04:25:46.338Z,945.84
2018-12-19T04:26:46.209Z,945.77
2018-12-19T04:27:46.110Z,945.88
2018-12-19T04:28:46.001Z,945.72
2018-12-19T04:29:45.897Z,945.92
2018-12-19T04:30:45.809Z,945.66
2018-12-19T04:31:45.692Z,945.77
2018-12-19T04:32:45.589Z,945.75
2018-12-19T04:33:45.495Z,945.77
2018-12-19T04:34:45.379Z,945.72
2018-12-19T04:35:45.288Z,945.62
2018-12-19T04:36:45.166Z,945.80
2018-12-19T04:37:45.065Z,945.70
2018-12-19T04:38:44.958Z,945.74
2018-12-19T04:39:44.855Z,945.77
2018-12-19T04:40:44.768Z,945.87
2018-12-19T04:41:44.648Z,945.80
2018-12-19T04:42:44.556Z,945.75
2018-12-19T04:43:44.437Z,945.75
2018-12-19T04:44:44.337Z,945.86
2018-12-19T04:45:44.244Z,945.82
2018-12-19T04:46:44.129Z,945.90
2018-12-19T04:47:44.019Z,945.64
2018-12-19T04:48:43.916Z,945.73
2018-12-19T04:49:43.809Z,945.66
2018-12-19T04:50:43.723Z,945.88
2018-12-19T04:51:43.620Z,945.70
2018-12-19T04:52:43.503Z,945.98
2018-12-19T04:53:43.392Z,946.13
2018-12-19T04:54:43.287Z,945.82
2018-12-19T04:55:43.198Z,945.75
2018-12-19T04:56:43.081Z,945.82
2018-12-19T04:57:43.082Z,945.91
2018-12-19T04:58:42.867Z,945.77
2018-12-19T04:59:42.766Z,945.88
2018-12-19T05:00:42.680Z,945.92
2018-12-19T05:01:42.555Z,946.00
2018-12-19T05:02:42.454Z,945.74
2018-12-19T05:03:42.348Z,945.68
2018-12-19T05:04:42.243Z,945.63
2018-12-19T05:05:42.156Z,945.77
2018-12-19T05:06:42.036Z,945.81
2018-12-19T05:07:41.925Z,945.76
2018-12-19T05:08:41.828Z,945.69
2018-12-19T05:09:41.721Z,945.86
2018-12-19T05:10:41.632Z,945.71
2018-12-19T05:11:41.513Z,945.70
2018-12-19T05:12:41.408Z,945.91
2018-12-19T05:13:41.304Z,945.67
2018-12-19T05:14:41.197Z,946.10
2018-12-19T05:15:41.111Z,945.78
2018-12-19T05:16:40.996Z,945.71
2018-12-19T05:17:40.883Z,945.81
2018-12-19T05:18:40.883Z,945.70
2018-12-19T05:19:40.678Z,945.90
2018-12-19T05:20:40.572Z,945.79
2018-12-19T05:21:40.487Z,945.84
2018-12-19T05:22:40.364Z,945.86
2018-12-19T05:23:40.257Z,945.91
2018-12-19T05:24:40.155Z,945.91
2018-12-19T05:25:40.166Z,945.88
2018-12-19T05:26:39.941Z,945.79
2018-12-19T05:27:39.844Z,945.91
2018-12-19T05:28:39.738Z,945.84
2018-12-19T05:29:39.645Z,945.90
2018-12-19T05:30:39.526Z,945.88
2018-12-19T05:31:39.439Z,945.97
2018-12-19T05:32:39.419Z,946.08
2018-12-19T05:33:39.215Z,946.06
2018-12-19T05:34:39.107Z,946.03
2018-12-19T05:35:39.007Z,946.08
2018-12-19T05:36:38.916Z,946.10
2018-12-19T05:37:38.796Z,946.12
2018-12-19T05:38:38.713Z,945.97
2018-12-19T05:39:38.705Z,945.99
2018-12-19T05:40:38.486Z,945.98
2018-12-19T05:41:38.398Z,945.98
2018-12-19T05:42:38.274Z,946.03
2018-12-19T05:43:38.167Z,946.04
2018-12-19T05:44:38.063Z,945.91
2018-12-19T05:45:37.959Z,946.23
2018-12-19T05:46:37.976Z,946.01
2018-12-19T05:47:37.753Z,946.19
2018-12-19T05:48:37.650Z,946.12
2018-12-19T05:49:37.543Z,946.06
2018-12-19T05:50:37.436Z,946.03
2018-12-19T05:51:37.356Z,946.13
2018-12-19T05:52:37.230Z,946.02
2018-12-19T05:53:37.226Z,946.02
2018-12-19T05:54:37.021Z,946.00
2018-12-19T05:55:36.915Z,945.89
2018-12-19T05:56:37.554Z,945.88
2018-12-19T05:57:36.710Z,945.90
2018-12-19T05:58:36.607Z,945.97
2018-12-19T05:59:36.501Z,945.89
2018-12-19T06:00:36.492Z,945.87
2018-12-19T06:01:36.307Z,945.83
2018-12-19T06:02:36.186Z,945.80
2018-12-19T06:03:36.084Z,945.77
2018-12-19T06:04:35.979Z,945.85
2018-12-19T06:05:35.875Z,945.87
2018-12-19T06:06:35.790Z,945.93
2018-12-19T06:07:35.766Z,945.81
2018-12-19T06:08:35.561Z,946.02
2018-12-19T06:09:35.455Z,945.79
2018-12-19T06:10:35.353Z,945.87
2018-12-19T06:11:35.264Z,945.90
2018-12-19T06:12:35.145Z,945.86
2018-12-19T06:13:35.037Z,945.98
2018-12-19T06:14:34.942Z,945.87
2018-12-19T06:15:34.846Z,945.98
2018-12-19T06:16:34.746Z,945.94
2018-12-19T06:17:34.620Z,945.94
2018-12-19T06:18:34.528Z,945.90
2018-12-19T06:19:34.410Z,945.90
2018-12-19T06:20:34.310Z,945.93
2018-12-19T06:21:34.218Z,945.99
2018-12-19T06:22:34.098Z,945.95
2018-12-19T06:23:33.997Z,945.98
2018-12-19T06:24:33.903Z,945.97
2018-12-19T06:25:33.790Z,945.99
2018-12-19T06:26:33.698Z,946.02
2018-12-19T06:27:33.682Z,946.02
2018-12-19T06:28:33.479Z,946.00
2018-12-19T06:29:33.367Z,946.19
2018-12-19T06:30:33.267Z,946.03
2018-12-19T06:31:33.179Z,946.00
2018-12-19T06:32:33.057Z,945.78
2018-12-19T06:33:32.962Z,945.96
2018-12-19T06:34:32.847Z,945.87
2018-12-19T06:35:32.741Z,945.92
2018-12-19T06:36:32.653Z,945.85
2018-12-19T06:37:32.535Z,945.86
2018-12-19T06:38:32.431Z,945.85
2018-12-19T06:39:32.326Z,945.79
2018-12-19T06:40:32.738Z,945.84
2018-12-19T06:41:32.141Z,945.87
2018-12-19T06:42:32.014Z,945.87
2018-12-19T06:43:31.911Z,945.87
2018-12-19T06:44:31.805Z,945.88
2018-12-19T06:45:31.702Z,945.94
2018-12-19T06:46:31.616Z,945.92
2018-12-19T06:47:31.492Z,945.84
2018-12-19T06:48:31.389Z,945.87
2018-12-19T06:49:31.281Z,945.90
2018-12-19T06:50:31.176Z,945.82
2018-12-19T06:51:31.096Z,945.99
2018-12-19T06:52:30.972Z,945.92
2018-12-19T06:53:30.872Z,945.81
2018-12-19T06:54:30.764Z,945.92
2018-12-19T06:55:30.658Z,945.89
2018-12-19T06:56:30.567Z,946.09
2018-12-19T06:57:30.454Z,946.01
2018-12-19T06:58:30.343Z,946.05
2018-12-19T06:59:30.239Z,946.13
2018-12-19T07:00:30.138Z,946.06
2018-12-19T07:01:30.046Z,945.99
2018-12-19T07:02:29.926Z,946.03
2018-12-19T07:03:29.822Z,946.09
2018-12-19T07:04:29.717Z,946.14
2018-12-19T07:05:29.613Z,946.09
2018-12-19T07:06:29.570Z,946.08
2018-12-19T07:07:29.421Z,946.18
2018-12-19T07:08:29.303Z,946.11
2018-12-19T07:09:29.204Z,946.14
2018-12-19T07:10:29.113Z,945.89
2018-12-19T07:11:28.993Z,945.94
2018-12-19T07:12:28.900Z,945.98
2018-12-19T07:13:28.783Z,945.92
2018-12-19T07:14:28.674Z,945.99
2018-12-19T07:15:28.574Z,945.96
2018-12-19T07:16:28.474Z,945.98
2018-12-19T07:17:28.383Z,946.02
2018-12-19T07:18:28.261Z,945.93
2018-12-19T07:19:28.153Z,945.95
2018-12-19T07:20:28.052Z,945.98
2018-12-19T07:21:27.950Z,945.86
2018-12-19T07:22:27.857Z,946.20
2018-12-19T07:23:27.738Z,946.09
2018-12-19T07:24:27.633Z,945.99
2018-12-19T07:25:27.533Z,945.88
2018-12-19T07:26:27.429Z,945.92
2018-12-19T07:27:27.341Z,946.02
2018-12-19T07:28:27.226Z,945.99
2018-12-19T07:29:27.116Z,946.04
2018-12-19T07:30:27.115Z,946.05
2018-12-19T07:31:26.902Z,946.11
2018-12-19T07:32:26.816Z,946.00
2018-12-19T07:33:26.700Z,946.00
2018-12-19T07:34:26.594Z,946.03
2018-12-19T07:35:26.487Z,946.04
2018-12-19T07:36:26.383Z,946.00
2018-12-19T07:37:26.295Z,945.98
2018-12-19T07:38:26.174Z,946.06
2018-12-19T07:39:26.070Z,946.00
2018-12-19T07:40:25.968Z,946.05
2018-12-19T07:41:25.862Z,946.03
2018-12-19T07:42:25.776Z,946.14
2018-12-19T07:43:25.654Z,946.05
2018-12-19T07:44:25.649Z,946.10
2018-12-19T07:45:25.448Z,946.00
2018-12-19T07:46:25.341Z,945.98
2018-12-19T07:47:25.257Z,945.92
2018-12-19T07:48:25.133Z,946.04
2018-12-19T07:49:25.034Z,945.96
2018-12-19T07:50:24.924Z,945.90
2018-12-19T07:51:24.924Z,945.84
2018-12-19T07:52:24.733Z,945.97
2018-12-19T07:53:24.622Z,946.00
2018-12-19T07:54:24.509Z,946.02
2018-12-19T07:55:24.407Z,946.28
2018-12-19T07:56:24.305Z,946.40
2018-12-19T07:57:24.217Z,946.46
2018-12-19T07:58:24.196Z,946.38
2018-12-19T07:59:23.991Z,946.33
2018-12-19T08:00:27.419Z,946.41
2018-12-19T08:01:23.782Z,946.46
2018-12-19T08:02:23.697Z,946.51
2018-12-19T08:03:23.573Z,946.45
2018-12-19T08:04:23.472Z,946.42
2018-12-19T08:05:26.266Z,946.40
2018-12-19T08:06:23.265Z,946.32
2018-12-19T08:07:23.178Z,946.45
2018-12-19T08:08:23.056Z,946.49
2018-12-19T08:09:22.950Z,946.51
2018-12-19T08:10:22.848Z,946.67
2018-12-19T08:11:22.746Z,946.75
2018-12-19T08:12:22.762Z,946.72
2018-12-19T08:13:22.539Z,946.75
2018-12-19T08:14:22.431Z,946.88
2018-12-19T08:15:22.328Z,946.87
2018-12-19T08:16:22.227Z,946.78
2018-12-19T08:17:22.137Z,946.79
2018-12-19T08:18:22.018Z,946.88
2018-12-19T08:19:21.909Z,946.88
2018-12-19T08:20:21.813Z,946.81
2018-12-19T08:21:21.704Z,946.92
2018-12-19T08:22:21.616Z,946.87
2018-12-19T08:23:21.501Z,946.84
2018-12-19T08:24:21.396Z,946.96
2018-12-19T08:25:21.290Z,947.03
2018-12-19T08:26:21.189Z,946.91
2018-12-19T08:27:21.101Z,947.00
2018-12-19T08:28:20.979Z,947.11
2018-12-19T08:29:20.878Z,947.16
2018-12-19T08:30:20.771Z,947.11
2018-12-19T08:31:20.670Z,946.97
2018-12-19T08:32:20.582Z,947.21
2018-12-19T08:33:22.326Z,946.92
2018-12-19T08:34:20.365Z,946.91
2018-12-19T08:35:20.252Z,946.99
2018-12-19T08:36:20.151Z,946.93
2018-12-19T08:37:20.066Z,946.80
2018-12-19T08:38:19.946Z,946.63
2018-12-19T08:39:19.842Z,946.67
2018-12-19T08:40:19.740Z,946.79
2018-12-19T08:41:19.634Z,946.90
2018-12-19T08:42:19.547Z,946.79
2018-12-19T08:43:19.426Z,946.83
2018-12-19T08:44:19.322Z,946.80
2018-12-19T08:45:19.227Z,946.89
2018-12-19T08:46:19.117Z,946.91
2018-12-19T08:47:19.027Z,946.95
2018-12-19T08:48:18.913Z,946.90
2018-12-19T08:49:18.805Z,946.84
2018-12-19T08:50:18.699Z,946.85
2018-12-19T08:51:18.596Z,946.80
2018-12-19T08:52:18.506Z,946.80
2018-12-19T08:53:18.409Z,946.85
2018-12-19T08:54:18.291Z,946.82
2018-12-19T08:55:18.185Z,946.88
2018-12-19T08:56:18.081Z,946.82
2018-12-19T08:57:17.978Z,946.87
2018-12-19T08:58:17.893Z,946.77
2018-12-19T08:59:17.771Z,946.77
2018-12-19T09:00:17.665Z,946.80
2018-12-19T09:01:17.564Z,946.77
2018-12-19T09:02:17.564Z,946.80
2018-12-19T09:03:17.374Z,946.72
2018-12-19T09:04:17.256Z,946.75
2018-12-19T09:05:17.152Z,946.83
2018-12-19T09:06:17.046Z,946.75
2018-12-19T09:07:16.946Z,946.73
2018-12-19T09:08:16.854Z,946.74
2018-12-19T09:09:16.836Z,946.81
2018-12-19T09:10:16.630Z,946.82
2018-12-19T09:11:16.528Z,946.87
2018-12-19T09:12:16.431Z,946.84
2018-12-19T09:13:16.342Z,946.92
2018-12-19T09:14:16.221Z,946.95
2018-12-19T09:15:16.217Z,947.00
2018-12-19T09:16:16.012Z,946.89
2018-12-19T09:17:15.908Z,946.77
2018-12-19T09:18:15.821Z,946.67
2018-12-19T09:19:15.705Z,946.73
2018-12-19T09:20:15.596Z,946.71
2018-12-19T09:21:15.496Z,946.67
2018-12-19T09:22:15.393Z,946.67
2018-12-19T09:23:15.417Z,946.68
2018-12-19T09:24:15.220Z,946.66
2018-12-19T09:25:15.084Z,946.58
2018-12-19T09:26:14.977Z,946.75
2018-12-19T09:27:14.877Z,946.68
2018-12-19T09:28:14.788Z,946.87
2018-12-19T09:29:14.806Z,946.88
2018-12-19T09:30:14.575Z,946.82
2018-12-19T09:31:14.471Z,946.82
2018-12-19T09:32:14.360Z,946.92
2018-12-19T09:33:14.271Z,946.93
2018-12-19T09:34:14.150Z,946.90
2018-12-19T09:35:14.047Z,946.98
2018-12-19T09:36:13.951Z,947.01
2018-12-19T09:37:13.844Z,947.01
2018-12-19T09:38:13.756Z,947.00
2018-12-19T09:39:13.639Z,947.10
2018-12-19T09:40:13.533Z,947.10
2018-12-19T09:41:13.438Z,947.16
2018-12-19T09:42:13.324Z,947.16
2018-12-19T09:43:13.241Z,947.14
2018-12-19T09:44:13.118Z,947.09
2018-12-19T09:45:13.030Z,947.14
2018-12-19T09:46:12.915Z,947.10
2018-12-19T09:47:12.809Z,947.14
2018-12-19T09:48:12.723Z,947.12
2018-12-19T09:49:13.951Z,947.13
2018-12-19T09:50:12.502Z,947.06
2018-12-19T09:51:12.400Z,947.02
2018-12-19T09:52:12.294Z,946.92
2018-12-19T09:53:12.208Z,946.89
2018-12-19T09:54:12.095Z,946.82
2018-12-19T09:55:11.987Z,946.97
2018-12-19T09:56:11.887Z,946.88
2018-12-19T09:57:11.784Z,946.85
2018-12-19T09:58:11.695Z,947.01
2018-12-19T09:59:11.578Z,946.81
2018-12-19T10:00:11.476Z,946.81
2018-12-19T10:01:11.378Z,946.75
2018-12-19T10:02:11.269Z,946.68
2018-12-19T10:03:11.182Z,946.66
2018-12-19T10:04:11.066Z,946.68
2018-12-19T10:05:10.963Z,946.68
2018-12-19T10:06:10.857Z,946.66
2018-12-19T10:07:10.753Z,946.53
2018-12-19T10:08:10.669Z,946.51
2018-12-19T10:09:14.863Z,946.53
2018-12-19T10:10:10.447Z,946.57
2018-12-19T10:11:10.347Z,946.60
2018-12-19T10:12:10.242Z,946.72
2018-12-19T10:13:10.154Z,946.65
2018-12-19T10:14:10.039Z,946.62
2018-12-19T10:15:09.935Z,946.72
2018-12-19T10:16:09.829Z,946.74
2018-12-19T10:17:09.729Z,946.73
2018-12-19T10:18:09.641Z,946.77
2018-12-19T10:19:09.523Z,946.77
2018-12-19T10:20:09.418Z,946.77
2018-12-19T10:21:09.318Z,946.77
2018-12-19T10:22:09.214Z,946.69
2018-12-19T10:23:09.126Z,946.69
2018-12-19T10:24:09.011Z,946.67
2018-12-19T10:25:08.906Z,946.65
2018-12-19T10:26:08.803Z,946.62
2018-12-19T10:27:08.698Z,946.63
2018-12-19T10:28:08.613Z,946.59
2018-12-19T10:29:08.497Z,946.60
2018-12-19T10:30:08.390Z,946.56
2018-12-19T10:31:08.289Z,946.57
2018-12-19T10:32:08.289Z,946.59
2018-12-19T10:33:08.103Z,946.62
2018-12-19T10:34:07.980Z,946.56
2018-12-19T10:35:07.883Z,946.58
2018-12-19T10:36:07.779Z,946.53
2018-12-19T10:37:07.677Z,946.56
2018-12-19T10:38:07.572Z,946.57
2018-12-19T10:39:07.588Z,946.65
2018-12-19T10:40:07.369Z,946.60
2018-12-19T10:41:07.264Z,946.69
2018-12-19T10:42:07.164Z,946.69
2018-12-19T10:43:07.063Z,946.61
2018-12-19T10:44:06.977Z,946.52
2018-12-19T10:45:06.857Z,946.57
2018-12-19T10:46:06.857Z,946.59
2018-12-19T10:47:06.649Z,946.57
2018-12-19T10:48:06.548Z,946.52
2018-12-19T10:49:06.476Z,946.52
2018-12-19T10:50:06.362Z,946.49
2018-12-19T10:51:06.244Z,946.47
2018-12-19T10:52:06.146Z,946.52
2018-12-19T10:53:06.142Z,946.46
2018-12-19T10:54:05.950Z,946.58
2018-12-19T10:55:05.836Z,946.49
2018-12-19T10:56:05.730Z,946.66
2018-12-19T10:57:05.628Z,946.37
2018-12-19T10:58:05.536Z,946.38
2018-12-19T10:59:05.439Z,946.39
2018-12-19T11:00:05.427Z,946.35
2018-12-19T11:01:05.220Z,946.27
2018-12-19T11:02:05.116Z,946.35
2018-12-19T11:03:05.019Z,946.27
2018-12-19T11:04:04.929Z,946.32
2018-12-19T11:05:04.811Z,946.37
2018-12-19T11:06:04.710Z,946.26
2018-12-19T11:07:04.710Z,946.27
2018-12-19T11:08:04.503Z,946.31
2018-12-19T11:09:04.422Z,946.30
2018-12-19T11:10:04.302Z,946.23
2018-12-19T11:11:04.196Z,946.26
2018-12-19T11:12:04.093Z,946.24
2018-12-19T11:13:04.117Z,946.19
2018-12-19T11:14:03.908Z,946.27
2018-12-19T11:15:03.791Z,946.22
2018-12-19T11:16:03.684Z,946.27
2018-12-19T11:17:03.585Z,946.22
2018-12-19T11:18:03.479Z,946.15
2018-12-19T11:19:03.395Z,946.21
2018-12-19T11:20:03.277Z,946.10
2018-12-19T11:21:03.174Z,946.12
2018-12-19T11:22:03.070Z,946.16
2018-12-19T11:23:02.966Z,946.14
2018-12-19T11:24:02.889Z,946.18
2018-12-19T11:25:02.763Z,946.20
2018-12-19T11:26:02.661Z,946.17
2018-12-19T11:27:02.563Z,946.14
2018-12-19T11:28:02.453Z,946.21
2018-12-19T11:29:02.885Z,946.22
2018-12-19T11:30:02.251Z,946.24
2018-12-19T11:31:02.154Z,946.21
2018-12-19T11:32:02.045Z,946.22
2018-12-19T11:33:01.940Z,946.18
2018-12-19T11:34:01.859Z,946.21
2018-12-19T11:35:01.738Z,946.11
2018-12-19T11:36:01.640Z,946.17
2018-12-19T11:37:01.536Z,946.21
2018-12-19T11:38:01.431Z,946.24
2018-12-19T11:39:01.342Z,946.20
2018-12-19T11:40:01.227Z,946.11
2018-12-19T11:41:01.120Z,946.12
2018-12-19T11:42:01.018Z,946.22
2018-12-19T11:43:00.915Z,946.15
2018-12-19T11:44:00.833Z,946.07
2018-12-19T11:45:00.714Z,946.12
2018-12-19T11:46:00.612Z,946.19
2018-12-19T11:47:00.506Z,946.13
2018-12-19T11:48:00.402Z,946.23
2018-12-19T11:49:00.320Z,946.08
2018-12-19T11:50:00.198Z,946.08
2018-12-19T11:51:00.098Z,945.99
2018-12-19T11:51:59.996Z,946.00
2018-12-19T11:52:59.895Z,946.10
2018-12-19T11:53:59.803Z,946.07
2018-12-19T11:54:59.683Z,946.05
2018-12-19T11:55:59.582Z,946.04
2018-12-19T11:56:59.483Z,946.03
2018-12-19T11:57:59.377Z,946.05
2018-12-19T11:58:59.294Z,945.97
2018-12-19T11:59:59.173Z,946.08
2018-12-19T12:00:59.069Z,946.07
2018-12-19T12:01:58.971Z,945.98
2018-12-19T12:02:58.866Z,946.06
2018-12-19T12:03:58.782Z,946.01
2018-12-19T12:04:58.663Z,946.01
2018-12-19T12:05:58.556Z,945.95
2018-12-19T12:06:58.454Z,946.00
2018-12-19T12:07:58.357Z,945.91
2018-12-19T12:08:58.267Z,945.78
2018-12-19T12:09:58.149Z,945.84
2018-12-19T12:10:58.047Z,945.88
2018-12-19T12:11:57.944Z,945.91
2018-12-19T12:12:57.842Z,945.87
2018-12-19T12:13:57.753Z,945.89
2018-12-19T12:14:57.638Z,945.83
2018-12-19T12:15:57.531Z,945.78
2018-12-19T12:16:57.433Z,945.86
2018-12-19T12:17:57.329Z,945.93
2018-12-19T12:18:57.245Z,945.83
2018-12-19T12:19:57.122Z,945.89
2018-12-19T12:20:57.023Z,945.92
2018-12-19T12:21:56.918Z,945.83
2018-12-19T12:22:56.816Z,945.82
2018-12-19T12:23:56.714Z,945.85
2018-12-19T12:24:56.628Z,945.85
2018-12-19T12:25:56.508Z,945.94
2018-12-19T12:26:56.405Z,945.90